sensor_id;sensor_type;location;lat;lon;timestamp;P1;durP1;ratioP1;P2;durP2;ratioP2
65597;SDS011;52267;51.984;20.956;2024-01-11T00:00:46;48.30;;;24.20;;
65597;SDS011;52267;51.984;20.956;2024-01-11T00:03:33;51.40;;;22.70;;
65597;SDS011;52267;51.984;20.956;2024-01-11T00:06:01;56.50;;;24.00;;
65597;SDS011;52267;51.984;20.956;2024-01-11T00:08:28;59.10;;;26.80;;
65597;SDS011;52267;51.984;20.956;2024-01-11T00:10:55;52.50;;;22.30;;
65597;SDS011;52267;51.984;20.956;2024-01-11T00:13:22;58.70;;;24.20;;
65597;SDS011;52267;51.984;20.956;2024-01-11T00:15:49;58.60;;;23.80;;
65597;SDS011;52267;51.984;20.956;2024-01-11T00:18:16;49.00;;;21.90;;
65597;SDS011;52267;51.984;20.956;2024-01-11T00:20:44;38.10;;;16.40;;
65597;SDS011;52267;51.984;20.956;2024-01-11T00:23:11;43.30;;;19.50;;
65597;SDS011;52267;51.984;20.956;2024-01-11T00:25:38;52.40;;;25.30;;
65597;SDS011;52267;51.984;20.956;2024-01-11T00:28:05;52.00;;;22.80;;
65597;SDS011;52267;51.984;20.956;2024-01-11T00:30:32;53.30;;;24.50;;
65597;SDS011;52267;51.984;20.956;2024-01-11T00:32:59;53.60;;;22.40;;
65597;SDS011;52267;51.984;20.956;2024-01-11T00:35:26;47.40;;;22.40;;
65597;SDS011;52267;51.984;20.956;2024-01-11T00:37:53;51.70;;;21.80;;
65597;SDS011;52267;51.984;20.956;2024-01-11T00:40:20;53.20;;;22.10;;
65597;SDS011;52267;51.984;20.956;2024-01-11T00:42:47;40.00;;;19.60;;
65597;SDS011;52267;51.984;20.956;2024-01-11T00:45:14;47.70;;;20.60;;
65597;SDS011;52267;51.984;20.956;2024-01-11T00:47:41;53.50;;;22.70;;
65597;SDS011;52267;51.984;20.956;2024-01-11T00:50:08;42.00;;;19.40;;
65597;SDS011;52267;51.984;20.956;2024-01-11T00:52:36;42.90;;;20.80;;
65597;SDS011;52267;51.984;20.956;2024-01-11T00:55:03;50.80;;;22.30;;
65597;SDS011;52267;51.984;20.956;2024-01-11T00:57:30;42.60;;;19.60;;
65597;SDS011;52267;51.984;20.956;2024-01-11T00:59:57;50.10;;;22.10;;
65597;SDS011;52267;51.984;20.956;2024-01-11T01:02:24;56.90;;;23.00;;
65597;SDS011;52267;51.984;20.956;2024-01-11T01:04:51;44.10;;;19.80;;
65597;SDS011;52267;51.984;20.956;2024-01-11T01:07:18;49.70;;;20.20;;
65597;SDS011;52267;51.984;20.956;2024-01-11T01:09:45;45.50;;;19.30;;
65597;SDS011;52267;51.984;20.956;2024-01-11T01:12:12;45.70;;;19.80;;
65597;SDS011;52267;51.984;20.956;2024-01-11T01:14:39;38.10;;;17.30;;
65597;SDS011;52267;51.984;20.956;2024-01-11T01:17:06;49.80;;;21.40;;
65597;SDS011;52267;51.984;20.956;2024-01-11T01:19:33;45.90;;;21.70;;
65597;SDS011;52267;51.984;20.956;2024-01-11T01:22:00;49.70;;;19.10;;
65597;SDS011;52267;51.984;20.956;2024-01-11T01:24:27;48.70;;;21.20;;
65597;SDS011;52267;51.984;20.956;2024-01-11T01:26:54;38.80;;;17.90;;
65597;SDS011;52267;51.984;20.956;2024-01-11T01:29:21;46.20;;;22.10;;
65597;SDS011;52267;51.984;20.956;2024-01-11T01:31:48;44.40;;;18.50;;
65597;SDS011;52267;51.984;20.956;2024-01-11T01:34:15;51.60;;;21.10;;
65597;SDS011;52267;51.984;20.956;2024-01-11T01:36:42;46.10;;;20.40;;
65597;SDS011;52267;51.984;20.956;2024-01-11T01:39:09;48.50;;;20.30;;
65597;SDS011;52267;51.984;20.956;2024-01-11T01:41:36;46.20;;;19.90;;
65597;SDS011;52267;51.984;20.956;2024-01-11T01:44:03;46.80;;;20.90;;
65597;SDS011;52267;51.984;20.956;2024-01-11T01:46:31;34.60;;;15.20;;
65597;SDS011;52267;51.984;20.956;2024-01-11T01:48:58;52.00;;;21.30;;
65597;SDS011;52267;51.984;20.956;2024-01-11T01:51:29;49.50;;;20.60;;
65597;SDS011;52267;51.984;20.956;2024-01-11T01:53:58;45.10;;;19.90;;
65597;SDS011;52267;51.984;20.956;2024-01-11T01:56:26;49.20;;;21.40;;
65597;SDS011;52267;51.984;20.956;2024-01-11T01:58:54;46.00;;;19.80;;
65597;SDS011;52267;51.984;20.956;2024-01-11T02:01:22;46.70;;;20.40;;
65597;SDS011;52267;51.984;20.956;2024-01-11T02:03:50;43.70;;;20.90;;
65597;SDS011;52267;51.984;20.956;2024-01-11T02:06:21;42.60;;;20.60;;
65597;SDS011;52267;51.984;20.956;2024-01-11T02:08:51;38.80;;;18.00;;
65597;SDS011;52267;51.984;20.956;2024-01-11T02:11:20;41.80;;;18.70;;
65597;SDS011;52267;51.984;20.956;2024-01-11T02:13:49;43.50;;;19.50;;
65597;SDS011;52267;51.984;20.956;2024-01-11T02:16:17;45.00;;;20.00;;
65597;SDS011;52267;51.984;20.956;2024-01-11T02:18:44;46.40;;;20.80;;
65597;SDS011;52267;51.984;20.956;2024-01-11T02:21:11;45.10;;;20.40;;
65597;SDS011;52267;51.984;20.956;2024-01-11T02:24:05;47.80;;;19.60;;
65597;SDS011;52267;51.984;20.956;2024-01-11T02:26:33;44.70;;;17.80;;
65597;SDS011;52267;51.984;20.956;2024-01-11T02:29:01;41.10;;;18.00;;
65597;SDS011;52267;51.984;20.956;2024-01-11T02:31:28;36.90;;;16.20;;
65597;SDS011;52267;51.984;20.956;2024-01-11T02:33:55;44.10;;;17.90;;
65597;SDS011;52267;51.984;20.956;2024-01-11T02:36:23;40.70;;;19.70;;
65597;SDS011;52267;51.984;20.956;2024-01-11T02:38:52;38.80;;;18.60;;
65597;SDS011;52267;51.984;20.956;2024-01-11T02:41:20;44.00;;;18.00;;
65597;SDS011;52267;51.984;20.956;2024-01-11T02:43:48;41.60;;;19.10;;
65597;SDS011;52267;51.984;20.956;2024-01-11T02:46:16;46.40;;;19.60;;
65597;SDS011;52267;51.984;20.956;2024-01-11T02:48:44;38.70;;;17.50;;
65597;SDS011;52267;51.984;20.956;2024-01-11T02:51:11;36.90;;;16.40;;
65597;SDS011;52267;51.984;20.956;2024-01-11T02:53:38;44.90;;;19.20;;
65597;SDS011;52267;51.984;20.956;2024-01-11T02:56:05;36.10;;;18.40;;
65597;SDS011;52267;51.984;20.956;2024-01-11T02:58:32;42.30;;;20.10;;
65597;SDS011;52267;51.984;20.956;2024-01-11T03:00:59;45.80;;;19.90;;
65597;SDS011;52267;51.984;20.956;2024-01-11T03:03:26;40.80;;;17.00;;
65597;SDS011;52267;51.984;20.956;2024-01-11T03:05:53;44.50;;;18.80;;
65597;SDS011;52267;51.984;20.956;2024-01-11T03:08:20;43.40;;;18.30;;
65597;SDS011;52267;51.984;20.956;2024-01-11T03:10:47;41.20;;;17.50;;
65597;SDS011;52267;51.984;20.956;2024-01-11T03:13:14;47.70;;;18.80;;
65597;SDS011;52267;51.984;20.956;2024-01-11T03:15:41;47.60;;;19.70;;
65597;SDS011;52267;51.984;20.956;2024-01-11T03:18:09;46.20;;;19.90;;
65597;SDS011;52267;51.984;20.956;2024-01-11T03:20:36;41.50;;;18.80;;
65597;SDS011;52267;51.984;20.956;2024-01-11T03:23:03;32.70;;;14.70;;
65597;SDS011;52267;51.984;20.956;2024-01-11T03:25:30;37.80;;;17.50;;
65597;SDS011;52267;51.984;20.956;2024-01-11T03:27:58;40.30;;;17.60;;
65597;SDS011;52267;51.984;20.956;2024-01-11T03:30:28;51.80;;;21.10;;
65597;SDS011;52267;51.984;20.956;2024-01-11T03:32:54;47.30;;;21.50;;
65597;SDS011;52267;51.984;20.956;2024-01-11T03:35:22;45.50;;;22.10;;
65597;SDS011;52267;51.984;20.956;2024-01-11T03:37:49;50.60;;;21.50;;
65597;SDS011;52267;51.984;20.956;2024-01-11T03:40:16;41.40;;;19.30;;
65597;SDS011;52267;51.984;20.956;2024-01-11T03:42:44;44.40;;;19.90;;
65597;SDS011;52267;51.984;20.956;2024-01-11T03:45:11;60.00;;;24.60;;
65597;SDS011;52267;51.984;20.956;2024-01-11T03:47:38;46.70;;;21.50;;
65597;SDS011;52267;51.984;20.956;2024-01-11T03:50:05;51.60;;;23.10;;
65597;SDS011;52267;51.984;20.956;2024-01-11T03:52:32;55.10;;;24.00;;
65597;SDS011;52267;51.984;20.956;2024-01-11T03:54:59;54.00;;;24.40;;
65597;SDS011;52267;51.984;20.956;2024-01-11T03:57:26;56.10;;;24.80;;
65597;SDS011;52267;51.984;20.956;2024-01-11T03:59:53;52.00;;;23.60;;
65597;SDS011;52267;51.984;20.956;2024-01-11T04:02:20;54.30;;;24.00;;
65597;SDS011;52267;51.984;20.956;2024-01-11T04:04:47;59.60;;;25.10;;
65597;SDS011;52267;51.984;20.956;2024-01-11T04:07:14;56.70;;;23.30;;
65597;SDS011;52267;51.984;20.956;2024-01-11T04:09:41;52.50;;;22.70;;
65597;SDS011;52267;51.984;20.956;2024-01-11T04:12:08;52.70;;;24.80;;
65597;SDS011;52267;51.984;20.956;2024-01-11T04:14:39;62.60;;;25.80;;
65597;SDS011;52267;51.984;20.956;2024-01-11T04:17:06;43.50;;;21.20;;
65597;SDS011;52267;51.984;20.956;2024-01-11T04:19:33;45.20;;;18.50;;
65597;SDS011;52267;51.984;20.956;2024-01-11T04:22:00;60.50;;;25.00;;
65597;SDS011;52267;51.984;20.956;2024-01-11T04:24:27;65.20;;;27.40;;
65597;SDS011;52267;51.984;20.956;2024-01-11T04:26:54;44.50;;;22.60;;
65597;SDS011;52267;51.984;20.956;2024-01-11T04:29:21;47.20;;;21.60;;
65597;SDS011;52267;51.984;20.956;2024-01-11T04:31:48;54.10;;;24.90;;
65597;SDS011;52267;51.984;20.956;2024-01-11T04:34:15;49.00;;;22.30;;
65597;SDS011;52267;51.984;20.956;2024-01-11T04:36:42;55.50;;;25.10;;
65597;SDS011;52267;51.984;20.956;2024-01-11T04:39:09;58.60;;;24.30;;
65597;SDS011;52267;51.984;20.956;2024-01-11T04:41:37;54.80;;;23.50;;
65597;SDS011;52267;51.984;20.956;2024-01-11T04:44:05;53.30;;;22.10;;
65597;SDS011;52267;51.984;20.956;2024-01-11T04:46:32;43.20;;;18.90;;
65597;SDS011;52267;51.984;20.956;2024-01-11T04:48:59;56.20;;;24.60;;
65597;SDS011;52267;51.984;20.956;2024-01-11T04:51:26;51.00;;;24.50;;
65597;SDS011;52267;51.984;20.956;2024-01-11T04:53:53;57.40;;;25.30;;
65597;SDS011;52267;51.984;20.956;2024-01-11T04:56:20;50.70;;;22.00;;
65597;SDS011;52267;51.984;20.956;2024-01-11T04:58:47;47.10;;;20.20;;
65597;SDS011;52267;51.984;20.956;2024-01-11T05:01:15;46.30;;;19.30;;
65597;SDS011;52267;51.984;20.956;2024-01-11T05:03:44;49.60;;;20.90;;
65597;SDS011;52267;51.984;20.956;2024-01-11T05:06:19;33.80;;;17.60;;
65597;SDS011;52267;51.984;20.956;2024-01-11T05:08:52;49.50;;;18.90;;
65597;SDS011;52267;51.984;20.956;2024-01-11T05:11:23;49.60;;;20.70;;
65597;SDS011;52267;51.984;20.956;2024-01-11T05:13:51;48.00;;;20.50;;
65597;SDS011;52267;51.984;20.956;2024-01-11T05:16:26;39.40;;;18.90;;
65597;SDS011;52267;51.984;20.956;2024-01-11T05:18:57;48.40;;;20.40;;
65597;SDS011;52267;51.984;20.956;2024-01-11T05:21:25;38.20;;;19.30;;
65597;SDS011;52267;51.984;20.956;2024-01-11T05:23:52;41.10;;;19.70;;
65597;SDS011;52267;51.984;20.956;2024-01-11T05:26:19;47.10;;;19.70;;
65597;SDS011;52267;51.984;20.956;2024-01-11T05:28:47;34.50;;;16.40;;
65597;SDS011;52267;51.984;20.956;2024-01-11T05:31:15;41.50;;;17.00;;
65597;SDS011;52267;51.984;20.956;2024-01-11T05:33:43;44.10;;;17.90;;
65597;SDS011;52267;51.984;20.956;2024-01-11T05:36:10;44.40;;;20.40;;
65597;SDS011;52267;51.984;20.956;2024-01-11T05:38:38;43.40;;;17.90;;
65597;SDS011;52267;51.984;20.956;2024-01-11T05:41:06;34.00;;;15.80;;
65597;SDS011;52267;51.984;20.956;2024-01-11T05:43:34;41.50;;;16.30;;
65597;SDS011;52267;51.984;20.956;2024-01-11T05:46:02;37.00;;;15.80;;
65597;SDS011;52267;51.984;20.956;2024-01-11T05:48:29;43.20;;;17.40;;
65597;SDS011;52267;51.984;20.956;2024-01-11T05:50:56;32.10;;;14.90;;
65597;SDS011;52267;51.984;20.956;2024-01-11T05:53:23;42.00;;;16.60;;
65597;SDS011;52267;51.984;20.956;2024-01-11T05:55:51;42.10;;;17.50;;
65597;SDS011;52267;51.984;20.956;2024-01-11T05:58:18;40.30;;;17.70;;
65597;SDS011;52267;51.984;20.956;2024-01-11T06:00:46;44.00;;;19.10;;
65597;SDS011;52267;51.984;20.956;2024-01-11T06:03:13;41.00;;;17.70;;
65597;SDS011;52267;51.984;20.956;2024-01-11T06:05:40;40.10;;;17.40;;
65597;SDS011;52267;51.984;20.956;2024-01-11T06:08:07;36.20;;;17.30;;
65597;SDS011;52267;51.984;20.956;2024-01-11T06:10:34;39.90;;;18.30;;
65597;SDS011;52267;51.984;20.956;2024-01-11T06:13:01;41.40;;;20.80;;
65597;SDS011;52267;51.984;20.956;2024-01-11T06:15:29;44.90;;;20.40;;
65597;SDS011;52267;51.984;20.956;2024-01-11T06:17:56;43.60;;;20.50;;
65597;SDS011;52267;51.984;20.956;2024-01-11T06:20:23;34.70;;;16.00;;
65597;SDS011;52267;51.984;20.956;2024-01-11T06:22:50;45.80;;;18.20;;
65597;SDS011;52267;51.984;20.956;2024-01-11T06:25:17;34.30;;;15.80;;
65597;SDS011;52267;51.984;20.956;2024-01-11T06:27:46;42.30;;;18.20;;
65597;SDS011;52267;51.984;20.956;2024-01-11T06:30:14;35.90;;;16.70;;
65597;SDS011;52267;51.984;20.956;2024-01-11T06:32:41;45.80;;;16.00;;
65597;SDS011;52267;51.984;20.956;2024-01-11T06:35:08;45.10;;;19.00;;
65597;SDS011;52267;51.984;20.956;2024-01-11T06:37:36;41.80;;;16.60;;
65597;SDS011;52267;51.984;20.956;2024-01-11T06:40:03;33.30;;;14.20;;
65597;SDS011;52267;51.984;20.956;2024-01-11T06:42:30;37.40;;;15.80;;
65597;SDS011;52267;51.984;20.956;2024-01-11T06:44:58;36.10;;;17.50;;
65597;SDS011;52267;51.984;20.956;2024-01-11T06:47:25;44.70;;;19.90;;
65597;SDS011;52267;51.984;20.956;2024-01-11T06:49:53;41.10;;;16.90;;
65597;SDS011;52267;51.984;20.956;2024-01-11T06:52:20;44.00;;;17.80;;
65597;SDS011;52267;51.984;20.956;2024-01-11T06:54:47;34.40;;;16.30;;
65597;SDS011;52267;51.984;20.956;2024-01-11T06:57:14;37.70;;;16.40;;
65597;SDS011;52267;51.984;20.956;2024-01-11T06:59:41;34.60;;;16.60;;
65597;SDS011;52267;51.984;20.956;2024-01-11T07:02:08;27.80;;;13.20;;
65597;SDS011;52267;51.984;20.956;2024-01-11T07:04:35;26.80;;;13.20;;
65597;SDS011;52267;51.984;20.956;2024-01-11T07:07:02;29.90;;;13.20;;
65597;SDS011;52267;51.984;20.956;2024-01-11T07:09:31;31.70;;;13.70;;
65597;SDS011;52267;51.984;20.956;2024-01-11T07:11:58;29.40;;;12.10;;
65597;SDS011;52267;51.984;20.956;2024-01-11T07:14:25;21.00;;;11.10;;
65597;SDS011;52267;51.984;20.956;2024-01-11T07:16:52;17.70;;;9.10;;
65597;SDS011;52267;51.984;20.956;2024-01-11T07:19:19;27.70;;;12.90;;
65597;SDS011;52267;51.984;20.956;2024-01-11T07:21:46;32.20;;;13.90;;
65597;SDS011;52267;51.984;20.956;2024-01-11T07:24:13;27.90;;;12.80;;
65597;SDS011;52267;51.984;20.956;2024-01-11T07:26:41;25.30;;;12.20;;
65597;SDS011;52267;51.984;20.956;2024-01-11T07:29:09;29.90;;;13.60;;
65597;SDS011;52267;51.984;20.956;2024-01-11T07:31:36;27.90;;;13.20;;
65597;SDS011;52267;51.984;20.956;2024-01-11T07:34:03;31.60;;;15.10;;
65597;SDS011;52267;51.984;20.956;2024-01-11T07:36:31;20.30;;;9.60;;
65597;SDS011;52267;51.984;20.956;2024-01-11T07:38:58;26.90;;;12.10;;
65597;SDS011;52267;51.984;20.956;2024-01-11T07:41:25;28.60;;;12.30;;
65597;SDS011;52267;51.984;20.956;2024-01-11T07:43:52;30.90;;;14.30;;
65597;SDS011;52267;51.984;20.956;2024-01-11T07:46:20;34.00;;;13.80;;
65597;SDS011;52267;51.984;20.956;2024-01-11T07:48:47;31.00;;;13.30;;
65597;SDS011;52267;51.984;20.956;2024-01-11T07:51:15;25.30;;;12.40;;
65597;SDS011;52267;51.984;20.956;2024-01-11T07:53:42;32.40;;;13.50;;
65597;SDS011;52267;51.984;20.956;2024-01-11T07:56:09;28.40;;;13.10;;
65597;SDS011;52267;51.984;20.956;2024-01-11T07:58:37;34.10;;;14.50;;
65597;SDS011;52267;51.984;20.956;2024-01-11T08:01:04;34.60;;;14.00;;
65597;SDS011;52267;51.984;20.956;2024-01-11T08:03:31;31.20;;;15.10;;
65597;SDS011;52267;51.984;20.956;2024-01-11T08:05:59;33.40;;;14.30;;
65597;SDS011;52267;51.984;20.956;2024-01-11T08:08:27;36.00;;;14.70;;
65597;SDS011;52267;51.984;20.956;2024-01-11T08:10:54;31.70;;;14.80;;
65597;SDS011;52267;51.984;20.956;2024-01-11T08:13:21;35.50;;;14.90;;
65597;SDS011;52267;51.984;20.956;2024-01-11T08:15:48;29.70;;;12.50;;
65597;SDS011;52267;51.984;20.956;2024-01-11T08:18:18;20.70;;;8.60;;
65597;SDS011;52267;51.984;20.956;2024-01-11T08:20:46;35.20;;;15.10;;
65597;SDS011;52267;51.984;20.956;2024-01-11T08:23:13;27.10;;;13.10;;
65597;SDS011;52267;51.984;20.956;2024-01-11T08:25:40;33.20;;;13.70;;
65597;SDS011;52267;51.984;20.956;2024-01-11T08:28:07;32.10;;;13.20;;
65597;SDS011;52267;51.984;20.956;2024-01-11T08:30:34;29.00;;;13.00;;
65597;SDS011;52267;51.984;20.956;2024-01-11T08:33:01;32.20;;;12.40;;
65597;SDS011;52267;51.984;20.956;2024-01-11T08:35:30;29.70;;;12.40;;
65597;SDS011;52267;51.984;20.956;2024-01-11T08:37:58;31.60;;;12.90;;
65597;SDS011;52267;51.984;20.956;2024-01-11T08:40:26;31.50;;;14.10;;
65597;SDS011;52267;51.984;20.956;2024-01-11T08:42:53;25.00;;;11.30;;
65597;SDS011;52267;51.984;20.956;2024-01-11T08:45:20;25.00;;;11.30;;
65597;SDS011;52267;51.984;20.956;2024-01-11T08:47:49;32.30;;;12.00;;
65597;SDS011;52267;51.984;20.956;2024-01-11T08:50:16;29.40;;;12.10;;
65597;SDS011;52267;51.984;20.956;2024-01-11T08:52:44;35.10;;;13.50;;
65597;SDS011;52267;51.984;20.956;2024-01-11T08:55:11;38.50;;;15.20;;
65597;SDS011;52267;51.984;20.956;2024-01-11T08:57:39;30.20;;;13.70;;
65597;SDS011;52267;51.984;20.956;2024-01-11T09:00:06;25.00;;;11.90;;
65597;SDS011;52267;51.984;20.956;2024-01-11T09:02:34;29.20;;;13.50;;
65597;SDS011;52267;51.984;20.956;2024-01-11T09:05:01;33.20;;;13.20;;
65597;SDS011;52267;51.984;20.956;2024-01-11T09:07:31;35.10;;;13.60;;
65597;SDS011;52267;51.984;20.956;2024-01-11T09:09:59;35.20;;;13.30;;
65597;SDS011;52267;51.984;20.956;2024-01-11T09:12:26;36.20;;;14.20;;
65597;SDS011;52267;51.984;20.956;2024-01-11T09:14:53;32.00;;;13.70;;
65597;SDS011;52267;51.984;20.956;2024-01-11T09:17:21;26.60;;;9.40;;
65597;SDS011;52267;51.984;20.956;2024-01-11T09:19:48;31.70;;;12.20;;
65597;SDS011;52267;51.984;20.956;2024-01-11T09:22:16;23.90;;;9.50;;
65597;SDS011;52267;51.984;20.956;2024-01-11T09:24:43;22.30;;;10.10;;
65597;SDS011;52267;51.984;20.956;2024-01-11T09:27:10;24.00;;;11.40;;
65597;SDS011;52267;51.984;20.956;2024-01-11T09:29:45;21.00;;;10.30;;
65597;SDS011;52267;51.984;20.956;2024-01-11T09:32:12;22.30;;;11.00;;
65597;SDS011;52267;51.984;20.956;2024-01-11T09:34:39;26.70;;;9.30;;
65597;SDS011;52267;51.984;20.956;2024-01-11T09:37:07;21.20;;;9.30;;
65597;SDS011;52267;51.984;20.956;2024-01-11T09:39:34;22.10;;;9.50;;
65597;SDS011;52267;51.984;20.956;2024-01-11T09:42:08;23.60;;;10.00;;
65597;SDS011;52267;51.984;20.956;2024-01-11T09:44:40;23.90;;;10.60;;
65597;SDS011;52267;51.984;20.956;2024-01-11T09:47:10;29.40;;;11.80;;
65597;SDS011;52267;51.984;20.956;2024-01-11T09:49:38;22.10;;;9.70;;
65597;SDS011;52267;51.984;20.956;2024-01-11T09:52:06;16.60;;;8.00;;
65597;SDS011;52267;51.984;20.956;2024-01-11T09:54:36;21.80;;;11.00;;
65597;SDS011;52267;51.984;20.956;2024-01-11T09:57:05;13.90;;;7.90;;
65597;SDS011;52267;51.984;20.956;2024-01-11T09:59:33;24.00;;;9.00;;
65597;SDS011;52267;51.984;20.956;2024-01-11T10:02:02;16.10;;;7.80;;
65597;SDS011;52267;51.984;20.956;2024-01-11T10:04:30;23.30;;;10.00;;
65597;SDS011;52267;51.984;20.956;2024-01-11T10:06:57;20.40;;;9.60;;
65597;SDS011;52267;51.984;20.956;2024-01-11T10:09:24;24.90;;;11.00;;
65597;SDS011;52267;51.984;20.956;2024-01-11T10:11:53;19.30;;;8.60;;
65597;SDS011;52267;51.984;20.956;2024-01-11T10:14:21;24.00;;;10.30;;
65597;SDS011;52267;51.984;20.956;2024-01-11T10:16:48;20.10;;;10.20;;
65597;SDS011;52267;51.984;20.956;2024-01-11T10:19:16;20.10;;;9.80;;
65597;SDS011;52267;51.984;20.956;2024-01-11T10:21:43;18.30;;;10.00;;
65597;SDS011;52267;51.984;20.956;2024-01-11T10:24:10;20.30;;;8.50;;
65597;SDS011;52267;51.984;20.956;2024-01-11T10:26:44;20.00;;;8.90;;
65597;SDS011;52267;51.984;20.956;2024-01-11T10:29:11;18.70;;;9.20;;
65597;SDS011;52267;51.984;20.956;2024-01-11T10:31:40;21.90;;;8.80;;
65597;SDS011;52267;51.984;20.956;2024-01-11T10:34:07;16.70;;;8.00;;
65597;SDS011;52267;51.984;20.956;2024-01-11T10:36:34;15.20;;;7.30;;
65597;SDS011;52267;51.984;20.956;2024-01-11T10:39:03;21.50;;;11.10;;
65597;SDS011;52267;51.984;20.956;2024-01-11T10:41:39;26.20;;;11.30;;
65597;SDS011;52267;51.984;20.956;2024-01-11T10:44:19;20.30;;;9.10;;
65597;SDS011;52267;51.984;20.956;2024-01-11T10:46:49;26.50;;;9.90;;
65597;SDS011;52267;51.984;20.956;2024-01-11T10:49:19;21.10;;;9.40;;
65597;SDS011;52267;51.984;20.956;2024-01-11T10:51:58;23.30;;;9.70;;
65597;SDS011;52267;51.984;20.956;2024-01-11T10:54:28;22.90;;;9.60;;
65597;SDS011;52267;51.984;20.956;2024-01-11T10:56:58;19.90;;;8.40;;
65597;SDS011;52267;51.984;20.956;2024-01-11T10:59:27;20.00;;;8.80;;
65597;SDS011;52267;51.984;20.956;2024-01-11T11:01:56;21.20;;;8.90;;
65597;SDS011;52267;51.984;20.956;2024-01-11T11:04:25;20.20;;;9.80;;
65597;SDS011;52267;51.984;20.956;2024-01-11T11:06:55;19.60;;;9.30;;
65597;SDS011;52267;51.984;20.956;2024-01-11T11:09:27;21.50;;;9.40;;
65597;SDS011;52267;51.984;20.956;2024-01-11T11:11:56;20.60;;;9.90;;
65597;SDS011;52267;51.984;20.956;2024-01-11T11:14:25;25.40;;;9.90;;
65597;SDS011;52267;51.984;20.956;2024-01-11T11:16:52;25.90;;;11.20;;
65597;SDS011;52267;51.984;20.956;2024-01-11T11:19:20;21.20;;;10.70;;
65597;SDS011;52267;51.984;20.956;2024-01-11T11:21:48;28.80;;;12.00;;
65597;SDS011;52267;51.984;20.956;2024-01-11T11:24:17;30.10;;;11.30;;
65597;SDS011;52267;51.984;20.956;2024-01-11T11:26:47;19.10;;;8.30;;
65597;SDS011;52267;51.984;20.956;2024-01-11T11:29:15;22.70;;;10.40;;
65597;SDS011;52267;51.984;20.956;2024-01-11T11:31:45;25.50;;;11.00;;
65597;SDS011;52267;51.984;20.956;2024-01-11T11:34:20;29.50;;;11.50;;
65597;SDS011;52267;51.984;20.956;2024-01-11T11:37:07;30.30;;;12.50;;
65597;SDS011;52267;51.984;20.956;2024-01-11T11:39:34;28.00;;;12.40;;
65597;SDS011;52267;51.984;20.956;2024-01-11T11:42:01;24.40;;;10.90;;
65597;SDS011;52267;51.984;20.956;2024-01-11T11:44:29;27.90;;;12.30;;
65597;SDS011;52267;51.984;20.956;2024-01-11T11:47:22;28.50;;;12.90;;
65597;SDS011;52267;51.984;20.956;2024-01-11T11:52:37;35.30;;;13.40;;
65597;SDS011;52267;51.984;20.956;2024-01-11T11:55:07;23.60;;;12.10;;
65597;SDS011;52267;51.984;20.956;2024-01-11T11:57:35;29.40;;;13.50;;
65597;SDS011;52267;51.984;20.956;2024-01-11T12:00:03;29.80;;;12.00;;
65597;SDS011;52267;51.984;20.956;2024-01-11T12:02:34;19.30;;;8.80;;
65597;SDS011;52267;51.984;20.956;2024-01-11T12:05:02;17.40;;;8.30;;
65597;SDS011;52267;51.984;20.956;2024-01-11T12:07:31;31.20;;;11.10;;
65597;SDS011;52267;51.984;20.956;2024-01-11T12:09:58;32.30;;;12.90;;
65597;SDS011;52267;51.984;20.956;2024-01-11T12:12:25;20.70;;;8.10;;
65597;SDS011;52267;51.984;20.956;2024-01-11T12:14:53;35.60;;;14.10;;
65597;SDS011;52267;51.984;20.956;2024-01-11T12:17:20;37.40;;;14.80;;
65597;SDS011;52267;51.984;20.956;2024-01-11T12:19:47;27.80;;;11.10;;
65597;SDS011;52267;51.984;20.956;2024-01-11T12:22:15;28.10;;;12.70;;
65597;SDS011;52267;51.984;20.956;2024-01-11T12:24:42;39.40;;;15.80;;
65597;SDS011;52267;51.984;20.956;2024-01-11T12:27:09;38.10;;;14.50;;
65597;SDS011;52267;51.984;20.956;2024-01-11T12:29:38;32.70;;;12.90;;
65597;SDS011;52267;51.984;20.956;2024-01-11T12:32:06;25.60;;;10.70;;
65597;SDS011;52267;51.984;20.956;2024-01-11T12:34:34;19.90;;;9.10;;
65597;SDS011;52267;51.984;20.956;2024-01-11T12:37:01;33.20;;;13.50;;
65597;SDS011;52267;51.984;20.956;2024-01-11T12:39:32;26.90;;;9.90;;
65597;SDS011;52267;51.984;20.956;2024-01-11T12:41:59;36.30;;;15.20;;
65597;SDS011;52267;51.984;20.956;2024-01-11T12:44:26;33.10;;;12.50;;
65597;SDS011;52267;51.984;20.956;2024-01-11T12:46:54;29.20;;;11.60;;
65597;SDS011;52267;51.984;20.956;2024-01-11T12:49:22;24.40;;;11.70;;
65597;SDS011;52267;51.984;20.956;2024-01-11T12:51:50;30.40;;;12.00;;
65597;SDS011;52267;51.984;20.956;2024-01-11T12:54:17;31.30;;;14.20;;
65597;SDS011;52267;51.984;20.956;2024-01-11T12:56:45;37.90;;;14.00;;
65597;SDS011;52267;51.984;20.956;2024-01-11T12:59:13;27.70;;;11.90;;
65597;SDS011;52267;51.984;20.956;2024-01-11T13:01:42;18.80;;;9.50;;
65597;SDS011;52267;51.984;20.956;2024-01-11T13:04:10;29.00;;;11.30;;
65597;SDS011;52267;51.984;20.956;2024-01-11T13:06:37;25.40;;;11.00;;
65597;SDS011;52267;51.984;20.956;2024-01-11T13:09:05;28.10;;;12.20;;
65597;SDS011;52267;51.984;20.956;2024-01-11T13:11:34;30.50;;;13.30;;
65597;SDS011;52267;51.984;20.956;2024-01-11T13:14:01;29.20;;;11.50;;
65597;SDS011;52267;51.984;20.956;2024-01-11T13:16:33;31.70;;;13.20;;
65597;SDS011;52267;51.984;20.956;2024-01-11T13:19:00;21.20;;;10.80;;
65597;SDS011;52267;51.984;20.956;2024-01-11T13:21:27;24.20;;;11.10;;
65597;SDS011;52267;51.984;20.956;2024-01-11T13:23:55;27.60;;;12.70;;
65597;SDS011;52267;51.984;20.956;2024-01-11T13:26:23;30.30;;;13.40;;
65597;SDS011;52267;51.984;20.956;2024-01-11T13:28:51;29.10;;;11.70;;
65597;SDS011;52267;51.984;20.956;2024-01-11T13:31:19;26.10;;;12.10;;
65597;SDS011;52267;51.984;20.956;2024-01-11T13:33:47;22.20;;;9.90;;
65597;SDS011;52267;51.984;20.956;2024-01-11T13:36:15;31.50;;;14.10;;
65597;SDS011;52267;51.984;20.956;2024-01-11T13:38:42;29.40;;;12.00;;
65597;SDS011;52267;51.984;20.956;2024-01-11T13:41:10;32.70;;;13.10;;
65597;SDS011;52267;51.984;20.956;2024-01-11T13:43:37;33.10;;;13.50;;
65597;SDS011;52267;51.984;20.956;2024-01-11T13:46:04;30.80;;;13.70;;
65597;SDS011;52267;51.984;20.956;2024-01-11T13:48:32;26.70;;;12.60;;
65597;SDS011;52267;51.984;20.956;2024-01-11T13:50:59;37.70;;;14.50;;
65597;SDS011;52267;51.984;20.956;2024-01-11T13:53:26;31.10;;;16.10;;
65597;SDS011;52267;51.984;20.956;2024-01-11T13:55:54;36.80;;;15.60;;
65597;SDS011;52267;51.984;20.956;2024-01-11T13:58:22;29.10;;;12.50;;
65597;SDS011;52267;51.984;20.956;2024-01-11T14:00:49;34.00;;;14.50;;
65597;SDS011;52267;51.984;20.956;2024-01-11T14:03:16;38.10;;;14.80;;
65597;SDS011;52267;51.984;20.956;2024-01-11T14:05:43;35.60;;;16.40;;
65597;SDS011;52267;51.984;20.956;2024-01-11T14:08:11;26.50;;;12.90;;
65597;SDS011;52267;51.984;20.956;2024-01-11T14:10:38;44.10;;;17.30;;
65597;SDS011;52267;51.984;20.956;2024-01-11T14:13:05;29.20;;;13.00;;
65597;SDS011;52267;51.984;20.956;2024-01-11T14:15:32;34.00;;;14.20;;
65597;SDS011;52267;51.984;20.956;2024-01-11T14:17:59;35.80;;;14.80;;